Decoded Metar for KNFE ( in _UNIDENTIFIED) (IATA:N/A) | Meteo·Mobile Aviation Weather
aviador You're here:

KNFE Decoded Metar

in _UNIDENTIFIED
Report Time2018-12-19 14:56:00
UTC Time2018-12-19 15:30:33
Flight Rules vfr VFR
WindCalm
Visibility9999 m
Phenomena:N/A
Clouds:N/A
Expected CloudBase > 2,000 ft AGL from Temp-Dew spread
CeilingNone
Temp08°C (ISA -7)
Dew Point03°C (71% RH)
AAT6.5°C
QNH1024 hPa
Density Alt-1,093 ft
Elevation13 ft
Report Wrong Elevation
Raw Report
KNFE 191456Z AUTO 00000KT 10SM CLR 08/03 A3023 RMK AO2 SLP240
T00830033 50002=

Extra information for KNFE:More info

Metar Taf Metar & Taf Last 4 Metars F.Rules Stats Wind Profile Meteogram Temp Stats Metar ALERT Operation Metar Decoded Social comments